sensor_id;sensor_type;location;lat;lon;timestamp;P1;durP1;ratioP1;P2;durP2;ratioP2
21038;SDS011;10678;51.002;4.786;2023-05-27T00:01:49;16.30;;;4.13;;
21038;SDS011;10678;51.002;4.786;2023-05-27T00:04:15;10.60;;;4.00;;
21038;SDS011;10678;51.002;4.786;2023-05-27T00:06:40;23.15;;;3.83;;
21038;SDS011;10678;51.002;4.786;2023-05-27T00:09:06;15.20;;;3.35;;
21038;SDS011;10678;51.002;4.786;2023-05-27T00:11:32;15.73;;;3.70;;
21038;SDS011;10678;51.002;4.786;2023-05-27T00:13:57;15.88;;;4.18;;
21038;SDS011;10678;51.002;4.786;2023-05-27T00:16:23;20.95;;;4.38;;
21038;SDS011;10678;51.002;4.786;2023-05-27T00:18:49;14.00;;;3.80;;
21038;SDS011;10678;51.002;4.786;2023-05-27T00:21:15;18.70;;;4.10;;
21038;SDS011;10678;51.002;4.786;2023-05-27T00:23:44;14.32;;;3.83;;
21038;SDS011;10678;51.002;4.786;2023-05-27T00:26:11;18.65;;;4.60;;
21038;SDS011;10678;51.002;4.786;2023-05-27T00:28:36;16.30;;;3.95;;
21038;SDS011;10678;51.002;4.786;2023-05-27T00:31:02;19.38;;;4.05;;
21038;SDS011;10678;51.002;4.786;2023-05-27T00:33:28;21.73;;;5.82;;
21038;SDS011;10678;51.002;4.786;2023-05-27T00:35:53;16.25;;;4.60;;
21038;SDS011;10678;51.002;4.786;2023-05-27T00:38:19;20.58;;;4.72;;
21038;SDS011;10678;51.002;4.786;2023-05-27T00:40:44;20.80;;;5.00;;
21038;SDS011;10678;51.002;4.786;2023-05-27T00:43:11;13.27;;;3.78;;
21038;SDS011;10678;51.002;4.786;2023-05-27T00:45:37;19.92;;;4.28;;
21038;SDS011;10678;51.002;4.786;2023-05-27T00:48:02;19.65;;;4.47;;
21038;SDS011;10678;51.002;4.786;2023-05-27T00:50:29;14.50;;;3.97;;
21038;SDS011;10678;51.002;4.786;2023-05-27T00:52:55;17.83;;;4.65;;
21038;SDS011;10678;51.002;4.786;2023-05-27T00:55:22;17.80;;;4.30;;
21038;SDS011;10678;51.002;4.786;2023-05-27T00:57:48;21.42;;;3.97;;
21038;SDS011;10678;51.002;4.786;2023-05-27T01:00:14;17.23;;;4.25;;
21038;SDS011;10678;51.002;4.786;2023-05-27T01:02:39;18.30;;;4.53;;
21038;SDS011;10678;51.002;4.786;2023-05-27T01:05:07;20.30;;;4.68;;
21038;SDS011;10678;51.002;4.786;2023-05-27T01:07:50;16.50;;;4.00;;
21038;SDS011;10678;51.002;4.786;2023-05-27T01:10:45;19.77;;;4.78;;
21038;SDS011;10678;51.002;4.786;2023-05-27T01:13:32;17.65;;;4.45;;
21038;SDS011;10678;51.002;4.786;2023-05-27T01:16:15;15.43;;;4.03;;
21038;SDS011;10678;51.002;4.786;2023-05-27T01:18:46;19.13;;;4.25;;
21038;SDS011;10678;51.002;4.786;2023-05-27T01:21:17;17.92;;;3.95;;
21038;SDS011;10678;51.002;4.786;2023-05-27T01:23:43;15.35;;;4.97;;
21038;SDS011;10678;51.002;4.786;2023-05-27T01:26:13;13.65;;;4.35;;
21038;SDS011;10678;51.002;4.786;2023-05-27T01:28:38;18.33;;;4.65;;
21038;SDS011;10678;51.002;4.786;2023-05-27T01:31:49;17.35;;;4.53;;
21038;SDS011;10678;51.002;4.786;2023-05-27T01:34:05;18.70;;;4.18;;
21038;SDS011;10678;51.002;4.786;2023-05-27T01:36:34;17.77;;;4.03;;
21038;SDS011;10678;51.002;4.786;2023-05-27T01:39:05;16.98;;;4.97;;
21038;SDS011;10678;51.002;4.786;2023-05-27T01:41:34;11.27;;;3.72;;
21038;SDS011;10678;51.002;4.786;2023-05-27T01:44:00;17.27;;;4.32;;
21038;SDS011;10678;51.002;4.786;2023-05-27T01:46:27;21.90;;;5.72;;
21038;SDS011;10678;51.002;4.786;2023-05-27T01:48:52;24.08;;;6.28;;
21038;SDS011;10678;51.002;4.786;2023-05-27T01:51:18;18.88;;;4.25;;
21038;SDS011;10678;51.002;4.786;2023-05-27T01:53:44;14.57;;;4.50;;
21038;SDS011;10678;51.002;4.786;2023-05-27T01:56:10;21.98;;;4.53;;
21038;SDS011;10678;51.002;4.786;2023-05-27T01:58:35;16.08;;;5.00;;
21038;SDS011;10678;51.002;4.786;2023-05-27T02:01:01;23.02;;;5.03;;
21038;SDS011;10678;51.002;4.786;2023-05-27T02:03:26;19.70;;;4.53;;
21038;SDS011;10678;51.002;4.786;2023-05-27T02:05:52;15.15;;;4.20;;
21038;SDS011;10678;51.002;4.786;2023-05-27T02:08:17;15.00;;;4.13;;
21038;SDS011;10678;51.002;4.786;2023-05-27T02:10:43;19.35;;;4.60;;
21038;SDS011;10678;51.002;4.786;2023-05-27T02:13:09;16.08;;;4.35;;
21038;SDS011;10678;51.002;4.786;2023-05-27T02:15:35;19.92;;;5.50;;
21038;SDS011;10678;51.002;4.786;2023-05-27T02:18:00;23.05;;;5.18;;
21038;SDS011;10678;51.002;4.786;2023-05-27T02:20:26;17.25;;;4.32;;
21038;SDS011;10678;51.002;4.786;2023-05-27T02:22:52;17.67;;;4.50;;
21038;SDS011;10678;51.002;4.786;2023-05-27T02:25:18;21.60;;;4.32;;
21038;SDS011;10678;51.002;4.786;2023-05-27T02:27:43;15.10;;;3.97;;
21038;SDS011;10678;51.002;4.786;2023-05-27T02:30:13;19.75;;;5.30;;
21038;SDS011;10678;51.002;4.786;2023-05-27T02:32:39;17.20;;;4.05;;
21038;SDS011;10678;51.002;4.786;2023-05-27T02:35:05;24.52;;;4.28;;
21038;SDS011;10678;51.002;4.786;2023-05-27T02:37:32;18.80;;;4.75;;
21038;SDS011;10678;51.002;4.786;2023-05-27T02:39:58;15.13;;;4.57;;
21038;SDS011;10678;51.002;4.786;2023-05-27T02:42:24;16.33;;;4.47;;
21038;SDS011;10678;51.002;4.786;2023-05-27T02:44:49;18.88;;;5.32;;
21038;SDS011;10678;51.002;4.786;2023-05-27T02:47:15;17.23;;;4.10;;
21038;SDS011;10678;51.002;4.786;2023-05-27T02:49:40;17.67;;;4.72;;
21038;SDS011;10678;51.002;4.786;2023-05-27T02:52:06;22.25;;;4.85;;
21038;SDS011;10678;51.002;4.786;2023-05-27T02:54:32;23.25;;;4.47;;
21038;SDS011;10678;51.002;4.786;2023-05-27T02:56:57;13.18;;;4.43;;
21038;SDS011;10678;51.002;4.786;2023-05-27T02:59:23;16.83;;;4.45;;
21038;SDS011;10678;51.002;4.786;2023-05-27T03:01:48;17.00;;;5.40;;
21038;SDS011;10678;51.002;4.786;2023-05-27T03:04:14;15.38;;;4.60;;
21038;SDS011;10678;51.002;4.786;2023-05-27T03:06:41;16.20;;;5.97;;
21038;SDS011;10678;51.002;4.786;2023-05-27T03:09:07;17.23;;;4.35;;
21038;SDS011;10678;51.002;4.786;2023-05-27T03:11:33;13.45;;;4.38;;
21038;SDS011;10678;51.002;4.786;2023-05-27T03:13:58;18.63;;;4.78;;
21038;SDS011;10678;51.002;4.786;2023-05-27T03:16:24;14.88;;;3.75;;
21038;SDS011;10678;51.002;4.786;2023-05-27T03:18:50;15.13;;;4.70;;
21038;SDS011;10678;51.002;4.786;2023-05-27T03:21:15;22.10;;;4.43;;
21038;SDS011;10678;51.002;4.786;2023-05-27T03:23:41;13.95;;;4.60;;
21038;SDS011;10678;51.002;4.786;2023-05-27T03:26:06;21.17;;;5.40;;
21038;SDS011;10678;51.002;4.786;2023-05-27T03:28:32;13.52;;;4.45;;
21038;SDS011;10678;51.002;4.786;2023-05-27T03:30:58;19.63;;;4.90;;
21038;SDS011;10678;51.002;4.786;2023-05-27T03:33:23;15.68;;;4.07;;
21038;SDS011;10678;51.002;4.786;2023-05-27T03:35:49;18.88;;;5.13;;
21038;SDS011;10678;51.002;4.786;2023-05-27T03:38:15;15.50;;;4.85;;
21038;SDS011;10678;51.002;4.786;2023-05-27T03:40:41;22.23;;;5.75;;
21038;SDS011;10678;51.002;4.786;2023-05-27T03:43:06;17.35;;;4.13;;
21038;SDS011;10678;51.002;4.786;2023-05-27T03:45:32;19.67;;;5.22;;
21038;SDS011;10678;51.002;4.786;2023-05-27T03:47:58;14.23;;;3.90;;
21038;SDS011;10678;51.002;4.786;2023-05-27T03:50:23;19.52;;;5.40;;
21038;SDS011;10678;51.002;4.786;2023-05-27T03:52:49;19.80;;;5.05;;
21038;SDS011;10678;51.002;4.786;2023-05-27T03:55:15;11.95;;;4.82;;
21038;SDS011;10678;51.002;4.786;2023-05-27T03:57:42;15.50;;;4.80;;
21038;SDS011;10678;51.002;4.786;2023-05-27T04:00:08;24.77;;;5.07;;
21038;SDS011;10678;51.002;4.786;2023-05-27T04:02:36;18.27;;;4.57;;
21038;SDS011;10678;51.002;4.786;2023-05-27T04:05:02;14.45;;;4.90;;
21038;SDS011;10678;51.002;4.786;2023-05-27T04:07:28;19.08;;;4.88;;
21038;SDS011;10678;51.002;4.786;2023-05-27T04:09:54;22.73;;;4.57;;
21038;SDS011;10678;51.002;4.786;2023-05-27T04:12:19;19.92;;;5.20;;
21038;SDS011;10678;51.002;4.786;2023-05-27T04:14:45;17.85;;;4.45;;
21038;SDS011;10678;51.002;4.786;2023-05-27T04:17:11;14.98;;;5.15;;
21038;SDS011;10678;51.002;4.786;2023-05-27T04:19:38;17.02;;;4.82;;
21038;SDS011;10678;51.002;4.786;2023-05-27T04:22:04;16.50;;;4.85;;
21038;SDS011;10678;51.002;4.786;2023-05-27T04:24:30;17.10;;;5.57;;
21038;SDS011;10678;51.002;4.786;2023-05-27T04:26:55;19.75;;;5.05;;
21038;SDS011;10678;51.002;4.786;2023-05-27T04:29:21;19.13;;;5.03;;
21038;SDS011;10678;51.002;4.786;2023-05-27T04:31:49;17.33;;;5.53;;
21038;SDS011;10678;51.002;4.786;2023-05-27T04:34:15;20.60;;;5.70;;
21038;SDS011;10678;51.002;4.786;2023-05-27T04:36:41;17.75;;;5.32;;
21038;SDS011;10678;51.002;4.786;2023-05-27T04:39:07;16.83;;;5.38;;
21038;SDS011;10678;51.002;4.786;2023-05-27T04:41:33;25.45;;;5.47;;
21038;SDS011;10678;51.002;4.786;2023-05-27T04:43:58;28.27;;;5.57;;
21038;SDS011;10678;51.002;4.786;2023-05-27T04:46:27;25.90;;;6.57;;
21038;SDS011;10678;51.002;4.786;2023-05-27T04:48:53;23.52;;;6.15;;
21038;SDS011;10678;51.002;4.786;2023-05-27T04:51:19;25.70;;;6.75;;
21038;SDS011;10678;51.002;4.786;2023-05-27T04:53:45;18.73;;;5.70;;
21038;SDS011;10678;51.002;4.786;2023-05-27T04:56:12;25.13;;;5.90;;
21038;SDS011;10678;51.002;4.786;2023-05-27T04:58:40;23.35;;;6.38;;
21038;SDS011;10678;51.002;4.786;2023-05-27T05:01:08;17.50;;;5.57;;
21038;SDS011;10678;51.002;4.786;2023-05-27T05:03:41;20.63;;;6.45;;
21038;SDS011;10678;51.002;4.786;2023-05-27T05:06:17;21.20;;;5.57;;
21038;SDS011;10678;51.002;4.786;2023-05-27T05:08:47;29.27;;;6.75;;
21038;SDS011;10678;51.002;4.786;2023-05-27T05:11:13;16.98;;;5.60;;
21038;SDS011;10678;51.002;4.786;2023-05-27T05:13:39;27.63;;;6.25;;
21038;SDS011;10678;51.002;4.786;2023-05-27T05:16:05;19.00;;;6.65;;
21038;SDS011;10678;51.002;4.786;2023-05-27T05:18:31;20.30;;;6.30;;
21038;SDS011;10678;51.002;4.786;2023-05-27T05:20:57;16.58;;;6.03;;
21038;SDS011;10678;51.002;4.786;2023-05-27T05:23:22;17.08;;;6.38;;
21038;SDS011;10678;51.002;4.786;2023-05-27T05:25:48;22.10;;;6.35;;
21038;SDS011;10678;51.002;4.786;2023-05-27T05:28:19;27.75;;;6.55;;
21038;SDS011;10678;51.002;4.786;2023-05-27T05:30:45;18.85;;;6.25;;
21038;SDS011;10678;51.002;4.786;2023-05-27T05:33:11;19.08;;;5.75;;
21038;SDS011;10678;51.002;4.786;2023-05-27T05:35:36;18.55;;;5.90;;
21038;SDS011;10678;51.002;4.786;2023-05-27T05:38:02;23.80;;;6.45;;
21038;SDS011;10678;51.002;4.786;2023-05-27T05:40:27;18.80;;;5.95;;
21038;SDS011;10678;51.002;4.786;2023-05-27T05:42:53;20.27;;;6.50;;
21038;SDS011;10678;51.002;4.786;2023-05-27T05:45:19;18.00;;;5.40;;
21038;SDS011;10678;51.002;4.786;2023-05-27T05:47:44;21.55;;;6.38;;
21038;SDS011;10678;51.002;4.786;2023-05-27T05:50:10;15.18;;;5.45;;
21038;SDS011;10678;51.002;4.786;2023-05-27T05:52:35;17.40;;;6.30;;
21038;SDS011;10678;51.002;4.786;2023-05-27T05:55:01;21.42;;;6.57;;
21038;SDS011;10678;51.002;4.786;2023-05-27T05:57:27;25.27;;;6.55;;
21038;SDS011;10678;51.002;4.786;2023-05-27T05:59:56;24.15;;;6.30;;
21038;SDS011;10678;51.002;4.786;2023-05-27T06:02:22;18.23;;;6.97;;
21038;SDS011;10678;51.002;4.786;2023-05-27T06:04:48;23.98;;;7.03;;
21038;SDS011;10678;51.002;4.786;2023-05-27T06:07:13;24.05;;;6.10;;
21038;SDS011;10678;51.002;4.786;2023-05-27T06:09:39;14.70;;;5.93;;
21038;SDS011;10678;51.002;4.786;2023-05-27T06:12:05;21.42;;;6.00;;
21038;SDS011;10678;51.002;4.786;2023-05-27T06:14:31;19.48;;;6.43;;
21038;SDS011;10678;51.002;4.786;2023-05-27T06:16:57;19.05;;;5.93;;
21038;SDS011;10678;51.002;4.786;2023-05-27T06:19:23;25.00;;;6.07;;
21038;SDS011;10678;51.002;4.786;2023-05-27T06:21:48;20.42;;;6.00;;
21038;SDS011;10678;51.002;4.786;2023-05-27T06:24:14;21.02;;;5.80;;
21038;SDS011;10678;51.002;4.786;2023-05-27T06:26:40;19.17;;;6.10;;
21038;SDS011;10678;51.002;4.786;2023-05-27T06:29:05;19.27;;;6.00;;
21038;SDS011;10678;51.002;4.786;2023-05-27T06:31:31;24.63;;;6.05;;
21038;SDS011;10678;51.002;4.786;2023-05-27T06:33:58;21.55;;;6.55;;
21038;SDS011;10678;51.002;4.786;2023-05-27T06:36:24;21.90;;;5.88;;
21038;SDS011;10678;51.002;4.786;2023-05-27T06:38:50;17.75;;;5.90;;
21038;SDS011;10678;51.002;4.786;2023-05-27T06:41:16;18.88;;;6.68;;
21038;SDS011;10678;51.002;4.786;2023-05-27T06:43:42;22.92;;;6.88;;
21038;SDS011;10678;51.002;4.786;2023-05-27T06:46:07;23.85;;;7.07;;
21038;SDS011;10678;51.002;4.786;2023-05-27T06:48:33;21.08;;;6.38;;
21038;SDS011;10678;51.002;4.786;2023-05-27T06:50:59;20.10;;;5.95;;
21038;SDS011;10678;51.002;4.786;2023-05-27T06:53:24;18.75;;;6.50;;
21038;SDS011;10678;51.002;4.786;2023-05-27T06:55:50;16.55;;;5.47;;
21038;SDS011;10678;51.002;4.786;2023-05-27T06:58:16;22.30;;;6.18;;
21038;SDS011;10678;51.002;4.786;2023-05-27T07:00:41;19.10;;;6.32;;
21038;SDS011;10678;51.002;4.786;2023-05-27T07:03:07;21.55;;;5.93;;
21038;SDS011;10678;51.002;4.786;2023-05-27T07:05:32;19.23;;;5.95;;
21038;SDS011;10678;51.002;4.786;2023-05-27T07:07:58;20.63;;;6.07;;
21038;SDS011;10678;51.002;4.786;2023-05-27T07:10:24;21.73;;;5.63;;
21038;SDS011;10678;51.002;4.786;2023-05-27T07:12:49;19.52;;;5.93;;
21038;SDS011;10678;51.002;4.786;2023-05-27T07:15:15;18.60;;;6.00;;
21038;SDS011;10678;51.002;4.786;2023-05-27T07:17:40;24.38;;;6.03;;
21038;SDS011;10678;51.002;4.786;2023-05-27T07:20:06;17.77;;;6.18;;
21038;SDS011;10678;51.002;4.786;2023-05-27T07:22:33;16.95;;;5.35;;
21038;SDS011;10678;51.002;4.786;2023-05-27T07:24:58;17.58;;;5.60;;
21038;SDS011;10678;51.002;4.786;2023-05-27T07:27:24;24.02;;;6.43;;
21038;SDS011;10678;51.002;4.786;2023-05-27T07:29:49;19.48;;;6.30;;
21038;SDS011;10678;51.002;4.786;2023-05-27T07:32:15;18.42;;;6.10;;
21038;SDS011;10678;51.002;4.786;2023-05-27T07:34:40;20.42;;;6.38;;
21038;SDS011;10678;51.002;4.786;2023-05-27T07:37:06;16.63;;;5.68;;
21038;SDS011;10678;51.002;4.786;2023-05-27T07:39:32;23.55;;;5.90;;
21038;SDS011;10678;51.002;4.786;2023-05-27T07:41:58;18.23;;;6.10;;
21038;SDS011;10678;51.002;4.786;2023-05-27T07:44:23;18.42;;;6.40;;
21038;SDS011;10678;51.002;4.786;2023-05-27T07:46:49;17.63;;;6.63;;
21038;SDS011;10678;51.002;4.786;2023-05-27T07:49:15;15.07;;;5.35;;
21038;SDS011;10678;51.002;4.786;2023-05-27T07:51:40;19.88;;;5.95;;
21038;SDS011;10678;51.002;4.786;2023-05-27T07:54:06;17.48;;;6.15;;
21038;SDS011;10678;51.002;4.786;2023-05-27T07:56:31;19.27;;;6.47;;
21038;SDS011;10678;51.002;4.786;2023-05-27T07:58:59;18.08;;;6.45;;
21038;SDS011;10678;51.002;4.786;2023-05-27T08:01:25;20.05;;;6.35;;
21038;SDS011;10678;51.002;4.786;2023-05-27T08:03:55;18.98;;;5.88;;
21038;SDS011;10678;51.002;4.786;2023-05-27T08:06:21;17.55;;;5.97;;
21038;SDS011;10678;51.002;4.786;2023-05-27T08:08:47;19.92;;;5.75;;
21038;SDS011;10678;51.002;4.786;2023-05-27T08:11:13;18.45;;;6.22;;
21038;SDS011;10678;51.002;4.786;2023-05-27T08:13:38;16.13;;;6.00;;
21038;SDS011;10678;51.002;4.786;2023-05-27T08:16:05;18.30;;;5.22;;
21038;SDS011;10678;51.002;4.786;2023-05-27T08:18:31;17.75;;;5.22;;
21038;SDS011;10678;51.002;4.786;2023-05-27T08:20:57;18.10;;;5.78;;
21038;SDS011;10678;51.002;4.786;2023-05-27T08:23:22;15.80;;;5.38;;
21038;SDS011;10678;51.002;4.786;2023-05-27T08:25:48;15.75;;;5.70;;
21038;SDS011;10678;51.002;4.786;2023-05-27T08:28:14;13.52;;;5.20;;
21038;SDS011;10678;51.002;4.786;2023-05-27T08:30:41;14.73;;;5.35;;
21038;SDS011;10678;51.002;4.786;2023-05-27T08:33:07;17.63;;;5.43;;
21038;SDS011;10678;51.002;4.786;2023-05-27T08:35:33;17.80;;;6.25;;
21038;SDS011;10678;51.002;4.786;2023-05-27T08:37:58;17.00;;;6.07;;
21038;SDS011;10678;51.002;4.786;2023-05-27T08:40:24;18.25;;;5.90;;
21038;SDS011;10678;51.002;4.786;2023-05-27T08:42:49;17.33;;;5.80;;
21038;SDS011;10678;51.002;4.786;2023-05-27T08:45:16;17.27;;;5.78;;
21038;SDS011;10678;51.002;4.786;2023-05-27T08:47:42;19.10;;;6.50;;
21038;SDS011;10678;51.002;4.786;2023-05-27T08:50:08;18.23;;;5.55;;
21038;SDS011;10678;51.002;4.786;2023-05-27T08:52:37;14.85;;;5.63;;
21038;SDS011;10678;51.002;4.786;2023-05-27T08:55:07;19.55;;;5.60;;
21038;SDS011;10678;51.002;4.786;2023-05-27T08:57:34;17.13;;;6.10;;
21038;SDS011;10678;51.002;4.786;2023-05-27T09:00:01;16.63;;;5.45;;
21038;SDS011;10678;51.002;4.786;2023-05-27T09:02:36;15.35;;;6.03;;
21038;SDS011;10678;51.002;4.786;2023-05-27T09:05:01;13.80;;;5.03;;
21038;SDS011;10678;51.002;4.786;2023-05-27T09:07:27;18.00;;;5.82;;
21038;SDS011;10678;51.002;4.786;2023-05-27T09:09:56;15.32;;;5.20;;
21038;SDS011;10678;51.002;4.786;2023-05-27T09:12:23;15.18;;;5.22;;
21038;SDS011;10678;51.002;4.786;2023-05-27T09:14:50;16.02;;;5.68;;
21038;SDS011;10678;51.002;4.786;2023-05-27T09:17:16;16.85;;;6.05;;
21038;SDS011;10678;51.002;4.786;2023-05-27T09:19:42;15.70;;;5.30;;
21038;SDS011;10678;51.002;4.786;2023-05-27T09:22:18;17.75;;;5.57;;
21038;SDS011;10678;51.002;4.786;2023-05-27T09:24:47;15.93;;;5.28;;
21038;SDS011;10678;51.002;4.786;2023-05-27T09:27:13;14.75;;;5.22;;
21038;SDS011;10678;51.002;4.786;2023-05-27T09:29:38;17.83;;;4.95;;
21038;SDS011;10678;51.002;4.786;2023-05-27T09:32:06;15.50;;;5.50;;
21038;SDS011;10678;51.002;4.786;2023-05-27T09:34:39;16.05;;;5.78;;
21038;SDS011;10678;51.002;4.786;2023-05-27T09:37:05;19.60;;;5.88;;
21038;SDS011;10678;51.002;4.786;2023-05-27T09:39:37;18.98;;;5.47;;
21038;SDS011;10678;51.002;4.786;2023-05-27T09:42:04;15.50;;;5.45;;
21038;SDS011;10678;51.002;4.786;2023-05-27T09:44:31;17.25;;;5.68;;
21038;SDS011;10678;51.002;4.786;2023-05-27T09:47:05;15.43;;;5.07;;
21038;SDS011;10678;51.002;4.786;2023-05-27T09:49:34;18.45;;;5.97;;
21038;SDS011;10678;51.002;4.786;2023-05-27T09:52:02;15.43;;;5.38;;
21038;SDS011;10678;51.002;4.786;2023-05-27T09:54:30;16.33;;;5.38;;
21038;SDS011;10678;51.002;4.786;2023-05-27T09:56:57;17.50;;;5.35;;
21038;SDS011;10678;51.002;4.786;2023-05-27T09:59:23;14.88;;;5.22;;
21038;SDS011;10678;51.002;4.786;2023-05-27T10:01:50;16.80;;;5.55;;
21038;SDS011;10678;51.002;4.786;2023-05-27T10:04:17;17.80;;;5.82;;
21038;SDS011;10678;51.002;4.786;2023-05-27T10:06:44;20.08;;;6.22;;
21038;SDS011;10678;51.002;4.786;2023-05-27T10:09:10;16.95;;;5.88;;
21038;SDS011;10678;51.002;4.786;2023-05-27T10:11:37;13.65;;;5.30;;
21038;SDS011;10678;51.002;4.786;2023-05-27T10:14:05;15.25;;;5.15;;
21038;SDS011;10678;51.002;4.786;2023-05-27T10:16:31;17.00;;;5.20;;
21038;SDS011;10678;51.002;4.786;2023-05-27T10:18:57;18.80;;;6.35;;
21038;SDS011;10678;51.002;4.786;2023-05-27T10:21:25;17.40;;;5.63;;
21038;SDS011;10678;51.002;4.786;2023-05-27T10:24:02;16.00;;;5.47;;
21038;SDS011;10678;51.002;4.786;2023-05-27T10:27:01;15.68;;;5.15;;
21038;SDS011;10678;51.002;4.786;2023-05-27T10:29:34;17.38;;;5.47;;
21038;SDS011;10678;51.002;4.786;2023-05-27T10:32:02;16.92;;;5.13;;
21038;SDS011;10678;51.002;4.786;2023-05-27T10:34:34;16.63;;;4.97;;
21038;SDS011;10678;51.002;4.786;2023-05-27T10:37:07;18.92;;;5.70;;
21038;SDS011;10678;51.002;4.786;2023-05-27T10:39:33;15.85;;;5.15;;
21038;SDS011;10678;51.002;4.786;2023-05-27T10:41:59;17.70;;;5.47;;
21038;SDS011;10678;51.002;4.786;2023-05-27T10:44:29;15.38;;;5.40;;
21038;SDS011;10678;51.002;4.786;2023-05-27T10:47:02;16.60;;;5.00;;
21038;SDS011;10678;51.002;4.786;2023-05-27T10:49:36;12.48;;;4.78;;
21038;SDS011;10678;51.002;4.786;2023-05-27T10:52:07;17.30;;;5.53;;
21038;SDS011;10678;51.002;4.786;2023-05-27T10:54:47;14.20;;;4.70;;
21038;SDS011;10678;51.002;4.786;2023-05-27T10:57:15;17.08;;;5.20;;
21038;SDS011;10678;51.002;4.786;2023-05-27T10:59:51;20.58;;;5.18;;
21038;SDS011;10678;51.002;4.786;2023-05-27T11:02:18;15.13;;;4.50;;
21038;SDS011;10678;51.002;4.786;2023-05-27T11:04:45;16.30;;;4.80;;
21038;SDS011;10678;51.002;4.786;2023-05-27T11:07:12;16.83;;;5.30;;
21038;SDS011;10678;51.002;4.786;2023-05-27T11:09:51;13.88;;;4.55;;
21038;SDS011;10678;51.002;4.786;2023-05-27T11:12:20;15.93;;;5.10;;
21038;SDS011;10678;51.002;4.786;2023-05-27T11:14:48;17.92;;;4.50;;
21038;SDS011;10678;51.002;4.786;2023-05-27T11:17:16;15.85;;;5.20;;
21038;SDS011;10678;51.002;4.786;2023-05-27T11:19:42;12.95;;;5.00;;
21038;SDS011;10678;51.002;4.786;2023-05-27T11:22:11;15.82;;;4.57;;
21038;SDS011;10678;51.002;4.786;2023-05-27T11:24:37;15.65;;;4.68;;
21038;SDS011;10678;51.002;4.786;2023-05-27T11:29:36;14.77;;;5.65;;
21038;SDS011;10678;51.002;4.786;2023-05-27T11:32:03;15.35;;;4.85;;
21038;SDS011;10678;51.002;4.786;2023-05-27T11:34:30;11.73;;;4.07;;
21038;SDS011;10678;51.002;4.786;2023-05-27T11:37:02;15.40;;;4.85;;
21038;SDS011;10678;51.002;4.786;2023-05-27T11:39:29;13.60;;;4.60;;
21038;SDS011;10678;51.002;4.786;2023-05-27T11:41:56;11.35;;;3.55;;
21038;SDS011;10678;51.002;4.786;2023-05-27T11:44:22;13.93;;;4.05;;
21038;SDS011;10678;51.002;4.786;2023-05-27T11:46:49;10.30;;;3.67;;
21038;SDS011;10678;51.002;4.786;2023-05-27T11:49:22;10.25;;;4.00;;
21038;SDS011;10678;51.002;4.786;2023-05-27T11:51:50;14.85;;;4.28;;
21038;SDS011;10678;51.002;4.786;2023-05-27T11:56:47;12.88;;;4.43;;
21038;SDS011;10678;51.002;4.786;2023-05-27T11:59:14;10.73;;;3.90;;
21038;SDS011;10678;51.002;4.786;2023-05-27T12:01:40;15.25;;;3.88;;
21038;SDS011;10678;51.002;4.786;2023-05-27T12:04:06;10.93;;;3.65;;
21038;SDS011;10678;51.002;4.786;2023-05-27T12:06:32;13.65;;;3.95;;
21038;SDS011;10678;51.002;4.786;2023-05-27T12:08:58;14.25;;;3.92;;
21038;SDS011;10678;51.002;4.786;2023-05-27T12:11:23;11.60;;;3.42;;
21038;SDS011;10678;51.002;4.786;2023-05-27T12:13:50;17.27;;;4.20;;
21038;SDS011;10678;51.002;4.786;2023-05-27T12:16:18;13.07;;;4.20;;
21038;SDS011;10678;51.002;4.786;2023-05-27T12:18:43;13.15;;;4.15;;
21038;SDS011;10678;51.002;4.786;2023-05-27T12:21:10;11.77;;;3.53;;
21038;SDS011;10678;51.002;4.786;2023-05-27T12:23:35;13.88;;;3.85;;
21038;SDS011;10678;51.002;4.786;2023-05-27T12:26:01;11.35;;;3.58;;
21038;SDS011;10678;51.002;4.786;2023-05-27T12:28:27;8.98;;;3.30;;
21038;SDS011;10678;51.002;4.786;2023-05-27T12:30:52;12.38;;;3.67;;
21038;SDS011;10678;51.002;4.786;2023-05-27T12:33:18;11.25;;;3.47;;
21038;SDS011;10678;51.002;4.786;2023-05-27T12:35:44;11.77;;;3.33;;
21038;SDS011;10678;51.002;4.786;2023-05-27T12:38:09;15.00;;;4.07;;
21038;SDS011;10678;51.002;4.786;2023-05-27T12:40:35;10.00;;;3.60;;
21038;SDS011;10678;51.002;4.786;2023-05-27T12:43:01;18.08;;;4.15;;
21038;SDS011;10678;51.002;4.786;2023-05-27T12:45:28;12.07;;;4.05;;
21038;SDS011;10678;51.002;4.786;2023-05-27T12:47:55;13.00;;;4.15;;
21038;SDS011;10678;51.002;4.786;2023-05-27T12:50:21;10.68;;;4.38;;
21038;SDS011;10678;51.002;4.786;2023-05-27T12:52:47;10.80;;;3.55;;
21038;SDS011;10678;51.002;4.786;2023-05-27T12:55:15;10.40;;;3.83;;
21038;SDS011;10678;51.002;4.786;2023-05-27T12:57:42;14.73;;;4.45;;
21038;SDS011;10678;51.002;4.786;2023-05-27T13:00:08;13.25;;;3.75;;
21038;SDS011;10678;51.002;4.786;2023-05-27T13:02:35;12.32;;;3.72;;
21038;SDS011;10678;51.002;4.786;2023-05-27T13:05:02;13.52;;;3.70;;
21038;SDS011;10678;51.002;4.786;2023-05-27T13:07:28;12.50;;;3.53;;
21038;SDS011;10678;51.002;4.786;2023-05-27T13:09:54;12.10;;;3.97;;
21038;SDS011;10678;51.002;4.786;2023-05-27T13:12:21;11.75;;;3.72;;
21038;SDS011;10678;51.002;4.786;2023-05-27T13:14:47;11.70;;;4.00;;
21038;SDS011;10678;51.002;4.786;2023-05-27T13:17:13;13.60;;;4.60;;
21038;SDS011;10678;51.002;4.786;2023-05-27T13:19:39;11.10;;;4.00;;
21038;SDS011;10678;51.002;4.786;2023-05-27T13:22:04;19.00;;;4.70;;
21038;SDS011;10678;51.002;4.786;2023-05-27T13:24:30;15.07;;;3.85;;
21038;SDS011;10678;51.002;4.786;2023-05-27T13:26:56;15.73;;;4.07;;
21038;SDS011;10678;51.002;4.786;2023-05-27T13:29:21;11.77;;;3.83;;
21038;SDS011;10678;51.002;4.786;2023-05-27T13:31:47;13.32;;;3.83;;
21038;SDS011;10678;51.002;4.786;2023-05-27T13:34:12;14.13;;;4.18;;
21038;SDS011;10678;51.002;4.786;2023-05-27T13:36:38;15.00;;;4.47;;
21038;SDS011;10678;51.002;4.786;2023-05-27T13:39:04;12.00;;;3.63;;
21038;SDS011;10678;51.002;4.786;2023-05-27T13:41:29;12.10;;;3.70;;
21038;SDS011;10678;51.002;4.786;2023-05-27T13:43:55;11.80;;;3.92;;
21038;SDS011;10678;51.002;4.786;2023-05-27T13:46:20;14.60;;;4.20;;
21038;SDS011;10678;51.002;4.786;2023-05-27T13:48:46;13.55;;;3.50;;
21038;SDS011;10678;51.002;4.786;2023-05-27T13:51:12;15.45;;;3.75;;
21038;SDS011;10678;51.002;4.786;2023-05-27T13:53:38;12.07;;;3.38;;
21038;SDS011;10678;51.002;4.786;2023-05-27T13:56:03;15.80;;;4.13;;
21038;SDS011;10678;51.002;4.786;2023-05-27T13:58:29;13.68;;;4.13;;
21038;SDS011;10678;51.002;4.786;2023-05-27T14:00:55;11.32;;;3.60;;
21038;SDS011;10678;51.002;4.786;2023-05-27T14:03:20;18.95;;;3.97;;
21038;SDS011;10678;51.002;4.786;2023-05-27T14:05:47;13.02;;;3.78;;
21038;SDS011;10678;51.002;4.786;2023-05-27T14:08:15;14.85;;;5.00;;
21038;SDS011;10678;51.002;4.786;2023-05-27T14:10:41;15.15;;;4.28;;
21038;SDS011;10678;51.002;4.786;2023-05-27T14:13:06;12.13;;;3.80;;
21038;SDS011;10678;51.002;4.786;2023-05-27T14:15:32;12.60;;;4.50;;
21038;SDS011;10678;51.002;4.786;2023-05-27T14:17:58;12.18;;;3.72;;
21038;SDS011;10678;51.002;4.786;2023-05-27T14:20:26;11.95;;;4.18;;
21038;SDS011;10678;51.002;4.786;2023-05-27T14:22:52;16.35;;;4.25;;
21038;SDS011;10678;51.002;4.786;2023-05-27T14:25:18;16.23;;;3.80;;
21038;SDS011;10678;51.002;4.786;2023-05-27T14:27:45;15.00;;;3.88;;
21038;SDS011;10678;51.002;4.786;2023-05-27T14:30:11;12.23;;;3.67;;
21038;SDS011;10678;51.002;4.786;2023-05-27T14:32:37;11.25;;;3.78;;
21038;SDS011;10678;51.002;4.786;2023-05-27T14:35:02;11.65;;;3.22;;
21038;SDS011;10678;51.002;4.786;2023-05-27T14:37:28;12.75;;;3.75;;